Time;durP1;ratioP1;P1;durP2;ratioP2;P2;SDS_P1;SDS_P2;PMS_P1;PMS_P2;Temp;Humidity;BMP_temperature;BMP_pressure;BME280_temperature;BME280_humidity;BME280_pressure;Samples;Min_cycle;Max_cycle;Signal;HPM_P1;HPM_P2
2021/09/18 00:01:41;;;;;;;2.30;1.70;;;14.70;1.00;;;;;;5064631;28;20500;-81
2021/09/18 00:04:08;;;;;;;2.60;1.43;;;14.70;1.00;;;;;;5053749;28;20475;-81
2021/09/18 00:06:35;;;;;;;2.43;1.70;;;14.70;1.00;;;;;;5051983;28;20855;-81
2021/09/18 00:09:02;;;;;;;3.40;1.60;;;14.70;1.00;;;;;;5046206;28;20476;-81
2021/09/18 00:11:29;;;;;;;1.70;1.50;;;14.60;1.00;;;;;;5047923;28;20452;-81
2021/09/18 00:13:56;;;;;;;2.10;1.50;;;14.60;1.00;;;;;;5048511;28;21061;-82
2021/09/18 00:16:26;;;;;;;2.00;1.57;;;14.60;1.00;;;;;;5045522;28;20528;-82
2021/09/18 00:18:53;;;;;;;2.00;1.40;;;14.60;1.00;;;;;;5041344;28;21165;-82
2021/09/18 00:21:20;;;;;;;1.80;1.37;;;14.60;1.00;;;;;;5047362;28;20468;-82
2021/09/18 00:23:47;;;;;;;2.60;1.70;;;14.70;1.00;;;;;;5043761;28;20417;-81
2021/09/18 00:26:14;;;;;;;1.73;1.43;;;14.60;1.00;;;;;;5050936;28;21050;-82
2021/09/18 00:28:40;;;;;;;2.30;1.60;;;14.60;1.00;;;;;;5050220;28;20510;-82
2021/09/18 00:31:07;;;;;;;2.33;1.70;;;14.60;1.00;;;;;;5046053;28;20503;-80
2021/09/18 00:33:35;;;;;;;2.00;1.50;;;14.60;1.00;;;;;;5049209;28;20455;-82
2021/09/18 00:36:02;;;;;;;2.63;2.17;;;14.60;1.00;;;;;;5047776;28;21302;-81
2021/09/18 00:38:29;;;;;;;2.37;1.80;;;14.50;1.00;;;;;;5045579;28;20528;-81
2021/09/18 00:40:55;;;;;;;2.80;1.63;;;14.60;1.00;;;;;;5050279;28;20448;-81
2021/09/18 00:43:22;;;;;;;1.97;1.50;;;14.60;1.00;;;;;;5041817;28;21265;-82
2021/09/18 00:45:49;;;;;;;2.33;1.70;;;14.60;1.00;;;;;;5047218;28;20977;-81
2021/09/18 00:48:16;;;;;;;3.80;2.57;;;14.50;1.00;;;;;;5043583;28;21072;-82
2021/09/18 00:50:50;;;;;;;2.10;1.73;;;14.50;1.00;;;;;;5036534;28;20456;-81
2021/09/18 00:53:16;;;;;;;4.03;1.70;;;14.50;1.00;;;;;;5029396;28;20485;-80
2021/09/18 00:55:43;;;;;;;2.63;1.80;;;14.50;1.00;;;;;;5035660;28;20542;-81
2021/09/18 00:58:11;;;;;;;1.90;1.60;;;14.50;1.00;;;;;;5040869;28;20458;-81
2021/09/18 01:00:38;;;;;;;4.43;2.00;;;14.50;1.00;;;;;;5036999;28;20420;-81
2021/09/18 01:03:05;;;;;;;3.63;1.93;;;14.50;1.00;;;;;;5040240;28;20479;-80
2021/09/18 01:05:31;;;;;;;1.83;1.53;;;14.50;1.00;;;;;;5042406;28;20455;-80
2021/09/18 01:08:00;;;;;;;2.80;1.80;;;14.60;1.00;;;;;;5037755;28;20471;-81
2021/09/18 01:10:27;;;;;;;2.63;1.90;;;14.40;1.00;;;;;;5033025;28;21886;-81
2021/09/18 01:12:59;;;;;;;3.40;2.27;;;14.40;1.00;;;;;;5039180;28;20450;-81
2021/09/18 01:15:26;;;;;;;2.73;2.40;;;14.40;1.00;;;;;;5037704;28;20463;-81
2021/09/18 01:17:55;;;;;;;2.77;1.50;;;14.30;1.00;;;;;;5039464;28;20436;-80
2021/09/18 01:20:23;;;;;;;2.73;1.70;;;14.30;1.00;;;;;;5034481;28;20563;-80
2021/09/18 01:22:51;;;;;;;2.30;1.90;;;14.30;1.00;;;;;;5038550;28;20432;-80
2021/09/18 01:25:20;;;;;;;2.90;2.00;;;14.20;1.00;;;;;;5038173;28;20412;-80
2021/09/18 01:27:47;;;;;;;2.63;2.03;;;14.20;1.00;;;;;;5037468;28;21345;-81
2021/09/18 01:30:19;;;;;;;3.30;1.90;;;14.30;1.00;;;;;;5041940;28;20461;-81
2021/09/18 01:32:46;;;;;;;3.43;1.80;;;14.20;1.00;;;;;;5051551;28;20590;-80
2021/09/18 01:35:15;;;;;;;3.90;2.63;;;14.30;1.00;;;;;;5041371;28;20478;-80
2021/09/18 01:37:46;;;;;;;2.93;2.13;;;14.30;1.00;;;;;;5038365;28;20542;-80
2021/09/18 01:40:15;;;;;;;4.80;1.90;;;14.30;1.00;;;;;;5042652;28;20580;-81
2021/09/18 01:42:47;;;;;;;2.90;2.13;;;14.40;1.00;;;;;;5043309;28;20431;-81
2021/09/18 01:45:15;;;;;;;2.23;1.80;;;14.30;1.00;;;;;;5041897;28;20427;-81
2021/09/18 01:47:44;;;;;;;2.17;1.90;;;14.30;1.00;;;;;;5039142;28;20449;-81
2021/09/18 01:50:22;;;;;;;2.37;1.80;;;14.30;1.00;;;;;;5039469;28;20480;-81
2021/09/18 01:52:49;;;;;;;2.63;1.70;;;14.20;1.00;;;;;;5032689;28;20448;-80
2021/09/18 01:55:17;;;;;;;3.73;2.23;;;14.20;1.00;;;;;;5035444;28;20451;-81
2021/09/18 01:57:46;;;;;;;2.10;1.90;;;14.20;1.00;;;;;;5033749;28;20523;-81
2021/09/18 02:00:14;;;;;;;2.40;2.03;;;14.10;1.00;;;;;;5036552;28;20465;-82
2021/09/18 02:02:40;;;;;;;3.30;1.90;;;14.20;1.00;;;;;;5034330;28;20550;-81
2021/09/18 02:05:09;;;;;;;2.37;2.17;;;14.20;1.00;;;;;;5038304;28;20491;-80
2021/09/18 02:07:35;;;;;;;2.90;2.30;;;14.20;1.00;;;;;;5041543;28;20622;-80
2021/09/18 02:10:02;;;;;;;2.20;2.00;;;14.20;1.00;;;;;;5034197;28;20451;-80
2021/09/18 02:12:29;;;;;;;3.00;1.90;;;14.20;1.00;;;;;;5037011;28;20436;-80
2021/09/18 02:14:57;;;;;;;4.10;1.90;;;14.20;1.00;;;;;;5044607;28;21487;-80
2021/09/18 02:17:23;;;;;;;2.47;1.80;;;14.20;1.00;;;;;;5043408;28;20515;-80
2021/09/18 02:19:50;;;;;;;2.20;1.80;;;14.20;1.00;;;;;;5039154;28;20553;-80
2021/09/18 02:22:16;;;;;;;3.90;2.53;;;14.30;1.00;;;;;;5040599;28;20524;-80
2021/09/18 02:24:43;;;;;;;4.53;2.50;;;14.30;1.00;;;;;;5044881;28;20444;-81
2021/09/18 02:27:10;;;;;;;3.13;2.00;;;14.30;1.00;;;;;;5042882;28;20455;-81
2021/09/18 02:29:37;;;;;;;2.70;1.80;;;14.30;1.00;;;;;;5049660;28;20448;-81
2021/09/18 02:32:05;;;;;;;3.20;2.30;;;14.30;1.00;;;;;;5043449;28;20481;-81
2021/09/18 02:34:32;;;;;;;2.77;2.30;;;14.30;1.00;;;;;;5043685;28;20448;-81
2021/09/18 02:36:59;;;;;;;2.83;2.27;;;14.30;1.00;;;;;;5036359;28;20742;-80
2021/09/18 02:39:25;;;;;;;2.53;2.33;;;14.30;1.00;;;;;;5041335;28;20459;-79
2021/09/18 02:41:53;;;;;;;2.50;2.30;;;14.30;1.00;;;;;;5039634;28;20451;-80
2021/09/18 02:44:19;;;;;;;2.77;2.10;;;14.30;1.00;;;;;;5037667;28;20472;-81
2021/09/18 02:46:46;;;;;;;3.77;2.10;;;14.30;1.00;;;;;;5041209;28;20466;-80
2021/09/18 02:49:14;;;;;;;3.63;2.03;;;14.30;1.00;;;;;;5024596;28;20475;-79
2021/09/18 02:51:40;;;;;;;2.97;2.20;;;14.30;1.00;;;;;;5028925;28;21374;-80
2021/09/18 02:54:07;;;;;;;3.00;2.37;;;14.30;1.00;;;;;;5037447;28;20468;-81
2021/09/18 02:56:34;;;;;;;2.70;2.27;;;14.30;1.00;;;;;;5037176;28;20888;-80
2021/09/18 02:59:00;;;;;;;3.00;2.53;;;14.40;1.00;;;;;;5040884;28;21175;-80
2021/09/18 03:01:27;;;;;;;5.23;2.17;;;14.30;1.00;;;;;;5050477;28;20998;-79
2021/09/18 03:03:54;;;;;;;2.87;2.30;;;14.30;1.00;;;;;;5043311;28;20452;-80
2021/09/18 03:06:22;;;;;;;2.83;2.17;;;14.30;1.00;;;;;;5043836;28;20583;-79
2021/09/18 03:08:48;;;;;;;2.17;1.90;;;14.40;1.00;;;;;;5043137;28;20468;-80
2021/09/18 03:11:15;;;;;;;2.60;2.17;;;14.30;1.00;;;;;;5040178;28;22703;-80
2021/09/18 03:13:42;;;;;;;5.33;2.47;;;14.40;1.00;;;;;;5038980;28;20462;-80
2021/09/18 03:16:08;;;;;;;2.80;2.13;;;14.30;1.00;;;;;;5044743;28;20602;-79
2021/09/18 03:18:35;;;;;;;2.30;2.00;;;14.40;1.00;;;;;;5046906;28;20464;-79
2021/09/18 03:21:02;;;;;;;2.90;2.17;;;14.40;1.00;;;;;;5045767;28;21402;-79
2021/09/18 03:23:30;;;;;;;4.63;2.47;;;14.30;1.00;;;;;;5049656;28;20576;-80
2021/09/18 03:25:57;;;;;;;3.23;2.30;;;14.30;1.00;;;;;;5046817;28;20537;-78
2021/09/18 03:28:24;;;;;;;2.87;2.27;;;14.30;1.00;;;;;;5048626;28;20463;-80
2021/09/18 03:30:51;;;;;;;4.17;3.20;;;14.30;1.00;;;;;;5050758;28;20492;-80
2021/09/18 03:33:17;;;;;;;5.10;2.87;;;14.20;1.00;;;;;;5042499;28;20460;-79
2021/09/18 03:35:44;;;;;;;2.80;2.50;;;14.30;1.00;;;;;;5044673;28;20487;-80
2021/09/18 03:38:12;;;;;;;2.33;2.10;;;14.30;1.00;;;;;;5039421;28;20577;-80
2021/09/18 03:40:40;;;;;;;3.80;2.70;;;14.20;1.00;;;;;;5040288;28;20437;-80
2021/09/18 03:43:07;;;;;;;4.03;2.50;;;14.20;1.00;;;;;;5044623;28;20589;-80
2021/09/18 03:45:33;;;;;;;4.37;2.80;;;14.20;1.00;;;;;;5049751;28;20451;-80
2021/09/18 03:48:00;;;;;;;2.40;1.97;;;14.30;1.00;;;;;;5049215;28;20495;-80
2021/09/18 03:50:26;;;;;;;2.80;2.57;;;14.20;1.00;;;;;;5043220;28;20455;-80
2021/09/18 03:52:53;;;;;;;3.30;2.73;;;14.20;1.00;;;;;;5045113;28;20822;-80
2021/09/18 03:55:20;;;;;;;4.10;2.90;;;14.30;1.00;;;;;;5042572;28;20452;-80
2021/09/18 03:57:48;;;;;;;4.00;2.17;;;14.30;1.00;;;;;;5039375;28;20614;-80
2021/09/18 04:00:16;;;;;;;3.13;2.53;;;14.30;1.00;;;;;;5043603;28;21540;-80
2021/09/18 04:02:42;;;;;;;2.67;2.30;;;14.30;1.00;;;;;;5048600;28;20443;-80
2021/09/18 04:05:10;;;;;;;3.70;2.40;;;14.30;1.00;;;;;;5037801;28;20455;-79
2021/09/18 04:07:36;;;;;;;4.10;2.47;;;14.30;1.00;;;;;;5039494;28;20548;-79
2021/09/18 04:10:04;;;;;;;3.57;2.20;;;14.30;1.00;;;;;;5041997;28;20416;-79
2021/09/18 04:12:31;;;;;;;3.10;2.80;;;14.30;1.00;;;;;;5038226;28;20424;-79
2021/09/18 04:14:59;;;;;;;2.90;2.57;;;14.40;1.00;;;;;;5041173;28;20444;-80
2021/09/18 04:17:26;;;;;;;4.17;2.33;;;14.40;1.00;;;;;;5043859;28;20567;-80
2021/09/18 04:19:52;;;;;;;4.13;2.57;;;14.40;1.00;;;;;;5043261;28;20545;-80
2021/09/18 04:22:19;;;;;;;4.30;2.70;;;14.40;1.00;;;;;;5041214;28;20460;-81
2021/09/18 04:24:46;;;;;;;2.83;2.20;;;14.40;1.00;;;;;;5037325;28;21871;-81
2021/09/18 04:27:14;;;;;;;4.03;3.13;;;14.50;1.00;;;;;;5048627;28;20471;-81
2021/09/18 04:29:40;;;;;;;3.20;2.67;;;14.50;1.00;;;;;;5046905;28;20571;-80
2021/09/18 04:32:08;;;;;;;2.80;2.50;;;14.50;1.00;;;;;;5044361;28;20426;-81
2021/09/18 04:34:35;;;;;;;4.37;2.90;;;14.50;1.00;;;;;;5038920;28;21220;-81
2021/09/18 04:37:02;;;;;;;6.10;3.73;;;14.40;1.00;;;;;;5034602;28;21572;-80
2021/09/18 04:39:29;;;;;;;4.10;2.70;;;14.30;1.00;;;;;;5037619;28;21013;-80
2021/09/18 04:41:56;;;;;;;3.50;2.63;;;14.30;1.00;;;;;;5035741;28;20513;-81
2021/09/18 04:44:23;;;;;;;4.10;3.00;;;14.30;1.00;;;;;;5035010;28;20456;-81
2021/09/18 04:46:50;;;;;;;3.20;2.70;;;14.40;1.00;;;;;;5039363;28;21610;-80
2021/09/18 04:49:18;;;;;;;4.30;2.90;;;14.40;1.00;;;;;;5041010;28;21304;-79
2021/09/18 04:51:44;;;;;;;4.80;3.67;;;14.40;1.00;;;;;;5041615;28;20448;-80
2021/09/18 04:54:11;;;;;;;4.83;3.73;;;14.40;1.00;;;;;;5033115;28;20483;-79
2021/09/18 04:56:38;;;;;;;4.53;3.77;;;14.30;1.00;;;;;;5032337;28;20946;-80
2021/09/18 04:59:04;;;;;;;5.30;3.37;;;14.30;1.00;;;;;;5033698;28;20448;-80
2021/09/18 05:01:31;;;;;;;3.67;3.23;;;14.30;1.00;;;;;;5030932;28;20463;-81
2021/09/18 05:03:58;;;;;;;5.20;4.50;;;14.30;1.00;;;;;;5038955;28;20902;-80
2021/09/18 05:06:26;;;;;;;4.33;3.87;;;14.30;1.00;;;;;;5037538;28;21929;-81
2021/09/18 05:08:52;;;;;;;4.00;3.60;;;14.30;1.00;;;;;;5039246;28;20469;-80
2021/09/18 05:11:19;;;;;;;4.27;3.87;;;14.30;1.00;;;;;;5035107;28;20431;-79
2021/09/18 05:13:46;;;;;;;4.40;4.00;;;14.40;1.00;;;;;;5037113;28;20577;-79
2021/09/18 05:16:12;;;;;;;5.70;4.53;;;14.40;1.00;;;;;;5043032;28;20498;-80
2021/09/18 05:18:39;;;;;;;4.53;3.77;;;14.40;1.00;;;;;;5042586;28;20444;-78
2021/09/18 05:21:06;;;;;;;5.87;4.47;;;14.30;1.00;;;;;;5044462;28;21242;-81
2021/09/18 05:23:34;;;;;;;5.23;4.40;;;14.30;1.00;;;;;;5038645;28;20555;-80
2021/09/18 05:26:00;;;;;;;6.03;5.43;;;14.30;1.00;;;;;;5040351;28;20449;-81
2021/09/18 05:28:28;;;;;;;5.90;5.07;;;14.20;1.00;;;;;;5041720;28;20991;-80
2021/09/18 05:30:55;;;;;;;6.77;5.07;;;14.20;1.00;;;;;;5042163;28;21056;-80
2021/09/18 05:33:21;;;;;;;6.23;5.50;;;14.20;1.00;;;;;;5043503;28;20459;-81
2021/09/18 05:35:48;;;;;;;7.80;5.37;;;14.20;1.00;;;;;;5042201;28;20470;-81
2021/09/18 05:38:14;;;;;;;4.80;4.30;;;14.30;1.00;;;;;;5041600;28;20443;-81
2021/09/18 05:40:43;;;;;;;5.47;4.57;;;14.20;1.00;;;;;;5041682;28;20452;-80
2021/09/18 05:43:09;;;;;;;6.50;4.50;;;14.20;1.00;;;;;;5043689;28;21642;-81
2021/09/18 05:45:36;;;;;;;5.77;4.80;;;14.30;1.00;;;;;;5041625;28;21672;-80
2021/09/18 05:48:04;;;;;;;6.50;4.73;;;14.30;1.00;;;;;;5049423;28;20440;-82
2021/09/18 05:50:30;;;;;;;5.17;4.40;;;14.30;1.00;;;;;;5050469;28;20459;-82
2021/09/18 05:52:57;;;;;;;6.10;5.10;;;14.30;1.00;;;;;;5044935;28;20457;-80
2021/09/18 05:55:24;;;;;;;5.50;4.70;;;14.30;1.00;;;;;;5043840;28;20467;-80
2021/09/18 05:57:52;;;;;;;5.60;5.00;;;14.40;1.00;;;;;;5043359;28;21134;-80
2021/09/18 06:00:19;;;;;;;6.17;4.53;;;14.40;1.00;;;;;;5041783;28;21267;-80
2021/09/18 06:02:45;;;;;;;5.43;4.90;;;14.30;1.00;;;;;;5043871;28;20967;-81
2021/09/18 06:05:12;;;;;;;4.90;4.20;;;14.30;1.00;;;;;;5044484;28;20488;-81
2021/09/18 06:07:39;;;;;;;6.13;5.53;;;14.30;1.00;;;;;;5048293;28;21795;-81
2021/09/18 06:10:07;;;;;;;4.97;4.53;;;14.30;1.00;;;;;;5048106;28;20765;-81
2021/09/18 06:12:34;;;;;;;4.90;4.10;;;14.30;1.00;;;;;;5049311;28;20444;-80
2021/09/18 06:15:02;;;;;;;5.70;4.87;;;14.30;1.00;;;;;;5047843;28;20589;-80
2021/09/18 06:17:29;;;;;;;4.47;4.07;;;14.30;1.00;;;;;;5055025;28;20448;-81
2021/09/18 06:19:55;;;;;;;4.47;3.77;;;14.40;1.00;;;;;;5060007;28;20413;-79
2021/09/18 06:22:24;;;;;;;4.50;3.87;;;14.40;1.00;;;;;;5060328;28;22114;-81
2021/09/18 06:24:51;;;;;;;6.60;4.30;;;14.40;1.00;;;;;;5062619;28;20498;-80
2021/09/18 06:27:18;;;;;;;4.40;4.00;;;14.40;1.00;;;;;;5068162;28;20447;-81
2021/09/18 06:29:44;;;;;;;5.40;4.40;;;14.50;1.00;;;;;;5070050;28;20464;-81
2021/09/18 06:32:13;;;;;;;5.70;4.67;;;14.50;1.00;;;;;;5067393;28;20487;-80
2021/09/18 06:34:40;;;;;;;5.87;4.90;;;14.50;1.00;;;;;;5067276;28;20451;-78
2021/09/18 06:37:06;;;;;;;5.20;4.80;;;14.50;1.00;;;;;;5070020;28;20442;-79
2021/09/18 06:39:34;;;;;;;4.30;3.67;;;14.60;1.00;;;;;;5067082;28;20459;-80
2021/09/18 06:42:01;;;;;;;5.33;4.83;;;14.60;1.00;;;;;;5064153;28;21074;-79
2021/09/18 06:44:28;;;;;;;5.40;4.60;;;14.60;1.00;;;;;;5056536;28;21192;-80
2021/09/18 06:46:55;;;;;;;7.13;6.00;;;14.60;1.00;;;;;;5065134;28;20461;-79
2021/09/18 06:49:23;;;;;;;5.90;5.30;;;14.50;1.00;;;;;;5065813;28;20945;-80
2021/09/18 06:51:50;;;;;;;5.90;5.30;;;14.60;1.00;;;;;;5062166;28;20462;-80
2021/09/18 06:54:17;;;;;;;6.37;5.77;;;14.50;1.00;;;;;;5064124;28;20601;-79
2021/09/18 06:56:44;;;;;;;7.83;6.10;;;14.60;1.00;;;;;;5056739;28;20432;-80
2021/09/18 06:59:10;;;;;;;8.50;7.03;;;14.60;1.00;;;;;;5058046;28;20495;-79
2021/09/18 07:01:37;;;;;;;5.77;5.23;;;14.60;1.00;;;;;;5054323;28;20423;-80
2021/09/18 07:04:04;;;;;;;5.97;5.43;;;14.60;1.00;;;;;;5048894;28;20520;-80
2021/09/18 07:06:32;;;;;;;7.87;5.83;;;14.60;1.00;;;;;;5050307;28;20704;-79
2021/09/18 07:08:59;;;;;;;6.87;6.17;;;14.70;1.00;;;;;;5053679;28;20524;-80
2021/09/18 07:11:26;;;;;;;9.73;6.60;;;14.70;1.00;;;;;;5048771;28;20481;-80
2021/09/18 07:13:52;;;;;;;7.90;7.10;;;14.80;1.00;;;;;;5050731;28;20997;-81
2021/09/18 07:16:19;;;;;;;8.93;7.10;;;14.80;1.00;;;;;;5047840;28;20463;-81
2021/09/18 07:18:45;;;;;;;7.77;6.83;;;14.90;1.00;;;;;;5055835;28;20462;-79
2021/09/18 07:21:12;;;;;;;8.70;7.90;;;14.90;1.00;;;;;;5047422;28;20445;-75
2021/09/18 07:23:40;;;;;;;9.27;8.33;;;15.00;1.00;;;;;;5049976;28;20477;-78
2021/09/18 07:26:07;;;;;;;9.40;7.80;;;15.10;1.00;;;;;;5047847;28;20464;-76
2021/09/18 07:28:35;;;;;;;8.80;7.90;;;15.10;1.00;;;;;;5055545;28;20576;-78
2021/09/18 07:31:02;;;;;;;9.60;8.60;;;15.00;1.00;;;;;;5050189;28;20460;-78
2021/09/18 07:33:28;;;;;;;10.67;9.03;;;15.10;1.00;;;;;;5051803;28;20467;-77
2021/09/18 07:35:55;;;;;;;11.00;9.90;;;15.10;1.00;;;;;;5054571;28;20998;-79
2021/09/18 07:38:22;;;;;;;10.47;9.43;;;15.20;1.00;;;;;;5056467;28;20461;-78
2021/09/18 07:40:53;;;;;;;12.90;9.50;;;15.20;1.00;;;;;;5064005;28;20441;-79
2021/09/18 07:43:20;;;;;;;13.40;11.00;;;15.40;1.00;;;;;;5056817;28;20457;-79
2021/09/18 07:45:46;;;;;;;13.40;9.97;;;15.50;1.00;;;;;;5053239;28;20433;-78
2021/09/18 07:48:13;;;;;;;11.27;9.97;;;15.70;1.00;;;;;;5055274;28;20449;-78
2021/09/18 07:50:40;;;;;;;9.43;8.53;;;15.70;1.00;;;;;;5054171;28;20432;-78
2021/09/18 07:53:07;;;;;;;9.47;8.57;;;15.80;1.00;;;;;;5064783;28;20404;-78
2021/09/18 07:55:34;;;;;;;8.97;8.03;;;15.90;1.00;;;;;;5052090;28;20442;-77
2021/09/18 07:58:02;;;;;;;10.67;9.57;;;16.00;1.00;;;;;;5049050;28;20466;-79
2021/09/18 08:00:30;;;;;;;9.70;8.57;;;16.10;1.00;;;;;;5056031;28;20446;-78
2021/09/18 08:02:57;;;;;;;9.90;8.93;;;16.10;1.00;;;;;;5054433;28;20437;-76
2021/09/18 08:05:24;;;;;;;10.87;9.47;;;16.30;1.00;;;;;;5052038;28;20443;-81
2021/09/18 08:07:50;;;;;;;9.30;8.47;;;16.40;1.00;;;;;;5050579;28;21494;-77
2021/09/18 08:10:17;;;;;;;7.83;7.07;;;16.70;1.00;;;;;;5049239;28;20419;-76
2021/09/18 08:12:47;;;;;;;7.20;6.50;;;17.00;1.00;;;;;;5058687;28;20538;-79
2021/09/18 08:15:16;;;;;;;16.67;14.77;;;17.20;1.00;;;;;;5055722;28;20447;-78
2021/09/18 08:17:44;;;;;;;10.67;9.57;;;17.30;1.00;;;;;;5060949;28;20460;-78
2021/09/18 08:20:12;;;;;;;7.57;6.80;;;17.50;1.00;;;;;;5053077;28;20461;-77
2021/09/18 08:22:39;;;;;;;7.07;6.43;;;17.70;1.00;;;;;;5055792;28;20547;-78
2021/09/18 08:25:07;;;;;;;5.67;5.07;;;17.90;1.00;;;;;;5057766;28;21045;-78
2021/09/18 08:27:34;;;;;;;5.53;4.70;;;18.20;1.00;;;;;;5049345;28;20551;-78
2021/09/18 08:30:00;;;;;;;10.70;8.73;;;18.40;1.00;;;;;;5055115;28;20448;-77
2021/09/18 08:32:28;;;;;;;6.50;5.60;;;18.50;1.00;;;;;;5056754;28;20451;-78
2021/09/18 08:34:55;;;;;;;5.30;4.73;;;18.60;1.00;;;;;;5063458;28;20450;-78
2021/09/18 08:37:21;;;;;;;7.47;5.60;;;18.70;1.00;;;;;;5076025;28;20401;-79
2021/09/18 08:39:48;;;;;;;3.87;3.40;;;18.80;1.00;;;;;;5092417;28;20400;-78
2021/09/18 08:42:16;;;;;;;5.47;4.70;;;18.90;1.00;;;;;;5090181;28;20437;-78
2021/09/18 08:44:43;;;;;;;2.90;2.30;;;18.90;1.00;;;;;;5091199;28;20468;-77
2021/09/18 08:47:12;;;;;;;8.50;7.63;;;18.80;1.00;;;;;;5089605;28;20397;-78
2021/09/18 08:49:40;;;;;;;4.20;2.80;;;18.80;1.00;;;;;;5077724;28;20424;-77
2021/09/18 08:52:08;;;;;;;4.33;2.57;;;18.90;1.00;;;;;;5071732;28;20417;-78
2021/09/18 08:54:39;;;;;;;7.40;5.77;;;19.00;1.00;;;;;;5080558;28;20491;-76
2021/09/18 08:57:06;;;;;;;2.77;2.13;;;19.00;1.00;;;;;;5085953;28;20413;-78
2021/09/18 08:59:36;;;;;;;4.73;2.93;;;19.00;1.00;;;;;;5079366;28;20436;-76
2021/09/18 09:02:13;;;;;;;3.87;1.97;;;19.20;1.00;;;;;;5089697;28;20439;-76
2021/09/18 09:04:42;;;;;;;4.60;2.63;;;19.40;1.00;;;;;;5083302;28;20426;-78
2021/09/18 09:07:10;;;;;;;2.90;1.60;;;19.80;1.00;;;;;;5078832;28;20401;-77
2021/09/18 09:10:02;;;;;;;9.73;4.43;;;20.10;1.00;;;;;;5082953;28;20889;-77
2021/09/18 09:12:34;;;;;;;3.60;1.30;;;20.30;1.00;;;;;;5065857;28;20542;-77
2021/09/18 09:15:03;;;;;;;3.30;2.50;;;20.50;1.00;;;;;;5081790;28;20440;-78
2021/09/18 09:17:32;;;;;;;3.37;2.33;;;21.10;1.00;;;;;;5074073;28;20436;-78
2021/09/18 09:20:01;;;;;;;10.93;2.80;;;22.40;1.00;;;;;;5077981;28;20747;-77
2021/09/18 09:22:40;;;;;;;3.50;1.80;;;22.50;1.00;;;;;;5075648;28;20491;-76
2021/09/18 09:25:24;;;;;;;6.30;2.53;;;22.00;1.00;;;;;;5077555;28;20418;-77
2021/09/18 09:27:51;;;;;;;4.90;1.77;;;21.10;1.00;;;;;;5080691;28;20548;-77
2021/09/18 09:30:30;;;;;;;4.53;2.57;;;20.40;1.00;;;;;;5078120;28;20418;-78
2021/09/18 09:33:09;;;;;;;3.87;1.43;;;19.50;1.00;;;;;;5077594;28;20494;-78
2021/09/18 09:35:38;;;;;;;9.50;8.60;;;18.90;1.00;;;;;;5079351;28;20440;-77
2021/09/18 09:38:07;;;;;;;3.00;1.57;;;18.60;1.00;;;;;;5077852;28;20467;-77
2021/09/18 09:40:38;;;;;;;3.30;1.80;;;18.40;1.00;;;;;;5079996;28;20489;-78
2021/09/18 09:43:06;;;;;;;3.27;1.90;;;18.40;1.00;;;;;;5090928;28;20433;-77
2021/09/18 09:45:33;;;;;;;3.63;1.40;;;18.50;1.00;;;;;;5081269;28;20471;-77
2021/09/18 09:48:07;;;;;;;4.20;3.23;;;18.50;1.00;;;;;;5087179;28;20532;-77
2021/09/18 09:50:35;;;;;;;2.83;2.07;;;18.50;1.00;;;;;;5084749;28;20796;-77
2021/09/18 09:53:04;;;;;;;3.00;2.30;;;18.30;1.00;;;;;;5079041;28;20447;-78
2021/09/18 09:55:36;;;;;;;3.80;2.37;;;18.10;1.00;;;;;;5082817;28;20486;-79
2021/09/18 09:58:06;;;;;;;2.60;2.37;;;18.00;1.00;;;;;;5083436;28;20428;-77
2021/09/18 10:00:38;;;;;;;3.83;2.77;;;17.80;1.00;;;;;;5078958;28;20431;-79
2021/09/18 10:03:05;;;;;;;4.33;2.53;;;17.70;1.00;;;;;;5087467;28;20451;-79
2021/09/18 10:05:32;;;;;;;4.33;3.20;;;17.70;1.00;;;;;;5088885;28;20431;-79
2021/09/18 10:08:03;;;;;;;3.90;2.60;;;17.80;1.00;;;;;;5089897;28;20466;-79
2021/09/18 10:10:32;;;;;;;3.53;2.70;;;18.10;1.00;;;;;;5087395;28;20503;-79
2021/09/18 10:12:59;;;;;;;3.20;2.17;;;19.00;1.00;;;;;;5084310;28;20462;-79
2021/09/18 10:15:28;;;;;;;3.27;2.27;;;20.30;1.00;;;;;;5083277;28;20857;-78
2021/09/18 10:17:56;;;;;;;3.40;2.00;;;21.70;1.00;;;;;;5078957;28;20425;-78
2021/09/18 10:23:18;;;;;;;3.73;1.20;;;23.00;1.00;;;;;;5059160;28;20521;-80
2021/09/18 10:25:49;;;;;;;2.13;1.20;;;22.60;1.00;;;;;;5061359;28;20431;-79
2021/09/18 10:28:18;;;;;;;2.00;1.60;;;22.40;1.00;;;;;;5053044;28;20458;-79
2021/09/18 10:30:47;;;;;;;2.30;1.20;;;22.30;1.00;;;;;;5050404;28;20443;-81
2021/09/18 10:33:32;;;;;;;1.73;0.90;;;22.30;1.00;;;;;;5050185;28;20558;-80
2021/09/18 10:36:01;;;;;;;3.73;1.47;;;22.10;1.00;;;;;;5050641;28;20450;-80
2021/09/18 10:38:30;;;;;;;4.30;2.10;;;22.00;1.00;;;;;;5058432;28;20452;-78
2021/09/18 10:41:00;;;;;;;1.90;1.27;;;22.60;1.00;;;;;;5051206;28;20450;-81
2021/09/18 10:43:36;;;;;;;1.77;0.90;;;22.90;1.00;;;;;;5050081;28;20472;-80
2021/09/18 10:46:03;;;;;;;1.87;1.00;;;23.10;1.00;;;;;;5059590;28;20913;-81
2021/09/18 10:48:36;;;;;;;2.00;1.10;;;23.00;1.00;;;;;;5055360;28;20559;-81
2021/09/18 10:51:03;;;;;;;2.73;0.93;;;22.80;1.00;;;;;;5061929;28;20533;-80
2021/09/18 10:53:51;;;;;;;1.80;1.20;;;22.90;1.00;;;;;;5059766;28;20538;-80
2021/09/18 10:56:19;;;;;;;2.40;1.10;;;22.90;1.00;;;;;;5053090;28;21349;-81
2021/09/18 10:59:06;;;;;;;2.00;1.67;;;23.10;1.00;;;;;;5051996;28;20460;-79
2021/09/18 11:01:32;;;;;;;1.90;0.90;;;23.10;1.00;;;;;;5046844;28;21450;-79
2021/09/18 11:03:59;;;;;;;2.20;1.20;;;22.60;1.00;;;;;;5052816;28;20466;-80
2021/09/18 11:06:38;;;;;;;4.13;1.97;;;22.20;1.00;;;;;;5061518;28;20427;-79
2021/09/18 11:09:06;;;;;;;3.60;1.77;;;21.70;1.00;;;;;;5061222;28;21996;-80
2021/09/18 11:11:34;;;;;;;2.20;1.40;;;21.30;1.00;;;;;;5057994;28;20472;-81
2021/09/18 11:14:02;;;;;;;2.80;1.80;;;21.00;1.00;;;;;;5063826;28;21035;-79
2021/09/18 11:16:34;;;;;;;3.00;1.77;;;20.40;1.00;;;;;;5049137;28;21241;-79
2021/09/18 11:19:05;;;;;;;3.00;1.87;;;19.50;1.00;;;;;;5048480;28;21214;-80
2021/09/18 11:21:40;;;;;;;3.33;1.70;;;19.00;1.00;;;;;;5043684;28;20427;-80
2021/09/18 11:24:23;;;;;;;3.60;1.57;;;18.40;1.00;;;;;;5047353;28;20467;-79
2021/09/18 11:26:52;;;;;;;3.33;2.13;;;18.00;1.00;;;;;;5049488;28;20446;-79
2021/09/18 11:29:32;;;;;;;2.53;1.50;;;17.60;1.00;;;;;;5051277;28;20462;-79
2021/09/18 11:32:12;;;;;;;2.93;1.80;;;17.30;1.00;;;;;;5050455;28;20471;-80
2021/09/18 11:34:41;;;;;;;2.90;2.20;;;17.20;1.00;;;;;;5051527;28;20477;-79
2021/09/18 11:37:10;;;;;;;3.97;3.50;;;17.20;1.00;;;;;;5049317;28;20458;-79
2021/09/18 11:39:40;;;;;;;3.77;2.30;;;17.30;1.00;;;;;;5053431;28;20451;-78
2021/09/18 11:42:15;;;;;;;3.70;2.20;;;17.40;1.00;;;;;;5057654;28;21173;-80
2021/09/18 11:44:42;;;;;;;3.27;2.30;;;17.50;1.00;;;;;;5053886;28;20462;-80
2021/09/18 11:47:09;;;;;;;3.73;2.50;;;17.60;1.00;;;;;;5059167;28;20483;-79
2021/09/18 11:49:38;;;;;;;2.67;2.03;;;17.70;1.00;;;;;;5057568;28;21267;-79
2021/09/18 11:52:07;;;;;;;3.63;1.80;;;17.80;1.00;;;;;;5049205;28;20468;-80
2021/09/18 11:54:34;;;;;;;3.37;2.90;;;18.10;1.00;;;;;;5055722;28;21218;-79
2021/09/18 11:57:13;;;;;;;5.10;3.60;;;18.30;1.00;;;;;;5052761;28;20591;-80
2021/09/18 11:59:40;;;;;;;3.27;2.50;;;18.70;1.00;;;;;;5055682;28;20570;-80
2021/09/18 12:02:07;;;;;;;3.00;2.47;;;18.90;1.00;;;;;;5056738;28;20459;-79
2021/09/18 12:04:42;;;;;;;3.03;2.10;;;19.20;1.00;;;;;;5054859;28;20440;-78
2021/09/18 12:07:10;;;;;;;3.77;2.30;;;19.50;1.00;;;;;;5055730;28;20413;-79
2021/09/18 12:09:36;;;;;;;6.30;5.70;;;19.90;1.00;;;;;;5053757;28;20438;-78
2021/09/18 12:12:04;;;;;;;3.70;1.90;;;20.40;1.00;;;;;;5057273;28;20481;-79
2021/09/18 12:14:33;;;;;;;3.30;2.80;;;20.80;1.00;;;;;;5054245;28;20471;-79
2021/09/18 12:17:15;;;;;;;5.03;3.23;;;21.10;1.00;;;;;;5058451;28;20439;-79
2021/09/18 12:19:43;;;;;;;5.63;3.20;;;21.30;1.00;;;;;;5053746;28;20894;-79
2021/09/18 12:22:10;;;;;;;4.63;4.17;;;21.60;1.00;;;;;;5053849;28;20452;-77
2021/09/18 12:24:38;;;;;;;4.23;2.77;;;22.40;1.00;;;;;;5052226;28;20586;-78
2021/09/18 12:27:26;;;;;;;3.80;3.00;;;22.70;1.00;;;;;;5060225;28;20445;-79
2021/09/18 12:30:00;;;;;;;4.80;3.57;;;22.90;1.00;;;;;;5062306;28;21022;-79
2021/09/18 12:32:27;;;;;;;7.57;3.47;;;22.80;1.00;;;;;;5064375;28;20483;-79
2021/09/18 12:34:57;;;;;;;6.17;3.63;;;22.70;1.00;;;;;;5062177;28;20505;-80
2021/09/18 12:37:32;;;;;;;3.50;3.20;;;22.30;1.00;;;;;;5062624;28;20441;-79
2021/09/18 12:40:14;;;;;;;4.03;2.80;;;21.90;1.00;;;;;;5060895;28;20504;-79
2021/09/18 12:42:41;;;;;;;4.83;3.97;;;21.30;1.00;;;;;;5072498;28;20450;-79
2021/09/18 12:45:26;;;;;;;4.47;4.03;;;20.70;1.00;;;;;;5061121;28;21340;-79
2021/09/18 12:48:18;;;;;;;8.80;5.23;;;20.30;1.00;;;;;;5066426;28;20864;-79
2021/09/18 12:50:54;;;;;;;10.80;7.17;;;19.90;1.00;;;;;;5064833;28;20994;-79
2021/09/18 12:53:22;;;;;;;12.03;11.00;;;19.40;1.00;;;;;;5056587;28;20451;-79
2021/09/18 12:56:16;;;;;;;17.03;15.70;;;19.10;1.00;;;;;;5067977;28;20469;-79
2021/09/18 12:58:44;;;;;;;17.23;15.40;;;18.80;1.00;;;;;;5060938;28;20451;-78
2021/09/18 13:01:13;;;;;;;15.07;13.97;;;18.60;1.00;;;;;;5061468;28;20537;-79
2021/09/18 13:03:41;;;;;;;15.70;14.40;;;18.50;1.00;;;;;;5064018;28;20457;-78
2021/09/18 13:06:08;;;;;;;14.67;13.57;;;18.30;1.00;;;;;;5065773;28;20494;-79